sensor_id;sensor_type;location;lat;lon;timestamp;temperature;humidity
16200;DHT22;8207;52.494;4.654;2022-12-24T00:01:37;10.40;99.90
16200;DHT22;8207;52.494;4.654;2022-12-24T00:04:04;10.40;99.90
16200;DHT22;8207;52.494;4.654;2022-12-24T00:06:32;10.40;99.90
16200;DHT22;8207;52.494;4.654;2022-12-24T00:08:59;10.40;99.90
16200;DHT22;8207;52.494;4.654;2022-12-24T00:11:26;10.40;99.90
16200;DHT22;8207;52.494;4.654;2022-12-24T00:13:54;10.40;99.90
16200;DHT22;8207;52.494;4.654;2022-12-24T00:16:21;10.40;99.90
16200;DHT22;8207;52.494;4.654;2022-12-24T00:18:48;10.40;99.90
16200;DHT22;8207;52.494;4.654;2022-12-24T00:21:15;10.40;99.90
16200;DHT22;8207;52.494;4.654;2022-12-24T00:23:43;10.50;99.90
16200;DHT22;8207;52.494;4.654;2022-12-24T00:26:10;10.40;99.90
16200;DHT22;8207;52.494;4.654;2022-12-24T00:28:37;10.40;99.90
16200;DHT22;8207;52.494;4.654;2022-12-24T00:31:11;10.40;99.90
16200;DHT22;8207;52.494;4.654;2022-12-24T00:33:38;10.30;99.90
16200;DHT22;8207;52.494;4.654;2022-12-24T00:36:06;10.30;99.90
16200;DHT22;8207;52.494;4.654;2022-12-24T00:38:33;10.30;99.90
16200;DHT22;8207;52.494;4.654;2022-12-24T00:41:01;10.20;99.90
16200;DHT22;8207;52.494;4.654;2022-12-24T00:43:29;10.30;99.90
16200;DHT22;8207;52.494;4.654;2022-12-24T00:45:56;10.30;99.90
16200;DHT22;8207;52.494;4.654;2022-12-24T00:48:25;10.30;99.90
16200;DHT22;8207;52.494;4.654;2022-12-24T00:50:52;10.30;99.90
16200;DHT22;8207;52.494;4.654;2022-12-24T00:53:19;10.30;99.90
16200;DHT22;8207;52.494;4.654;2022-12-24T00:55:46;10.20;99.90
16200;DHT22;8207;52.494;4.654;2022-12-24T00:58:13;10.30;99.90
16200;DHT22;8207;52.494;4.654;2022-12-24T01:00:40;10.20;99.90
16200;DHT22;8207;52.494;4.654;2022-12-24T01:03:07;10.20;99.90
16200;DHT22;8207;52.494;4.654;2022-12-24T01:05:35;10.30;99.90
16200;DHT22;8207;52.494;4.654;2022-12-24T01:08:01;10.30;99.90
16200;DHT22;8207;52.494;4.654;2022-12-24T01:10:28;10.30;99.90
16200;DHT22;8207;52.494;4.654;2022-12-24T01:12:55;10.30;99.90
16200;DHT22;8207;52.494;4.654;2022-12-24T01:15:21;10.30;99.90
16200;DHT22;8207;52.494;4.654;2022-12-24T01:17:48;10.30;99.90
16200;DHT22;8207;52.494;4.654;2022-12-24T01:20:16;10.30;99.90
16200;DHT22;8207;52.494;4.654;2022-12-24T01:22:44;10.30;99.90
16200;DHT22;8207;52.494;4.654;2022-12-24T01:25:11;10.30;99.90
16200;DHT22;8207;52.494;4.654;2022-12-24T01:27:38;10.30;99.90
16200;DHT22;8207;52.494;4.654;2022-12-24T01:30:07;10.30;99.90
16200;DHT22;8207;52.494;4.654;2022-12-24T01:32:34;10.30;99.90
16200;DHT22;8207;52.494;4.654;2022-12-24T01:35:01;10.30;99.90
16200;DHT22;8207;52.494;4.654;2022-12-24T01:37:28;10.30;99.90
16200;DHT22;8207;52.494;4.654;2022-12-24T01:39:56;10.30;99.90
16200;DHT22;8207;52.494;4.654;2022-12-24T01:42:37;10.30;99.90
16200;DHT22;8207;52.494;4.654;2022-12-24T01:45:46;10.30;99.90
16200;DHT22;8207;52.494;4.654;2022-12-24T01:48:25;10.30;99.90
16200;DHT22;8207;52.494;4.654;2022-12-24T01:50:57;10.30;99.90
16200;DHT22;8207;52.494;4.654;2022-12-24T01:53:25;10.30;99.90
16200;DHT22;8207;52.494;4.654;2022-12-24T01:55:53;10.30;99.90
16200;DHT22;8207;52.494;4.654;2022-12-24T01:58:23;10.20;99.90
16200;DHT22;8207;52.494;4.654;2022-12-24T02:00:50;10.20;99.90
16200;DHT22;8207;52.494;4.654;2022-12-24T02:03:17;10.30;99.90
16200;DHT22;8207;52.494;4.654;2022-12-24T02:05:47;10.30;99.90
16200;DHT22;8207;52.494;4.654;2022-12-24T02:08:15;10.30;99.90
16200;DHT22;8207;52.494;4.654;2022-12-24T02:10:42;10.20;99.90
16200;DHT22;8207;52.494;4.654;2022-12-24T02:13:11;10.20;99.90
16200;DHT22;8207;52.494;4.654;2022-12-24T02:15:48;10.10;99.90
16200;DHT22;8207;52.494;4.654;2022-12-24T02:18:21;10.00;99.90
16200;DHT22;8207;52.494;4.654;2022-12-24T02:27:10;10.00;99.90
16200;DHT22;8207;52.494;4.654;2022-12-24T02:30:03;9.90;99.90
16200;DHT22;8207;52.494;4.654;2022-12-24T02:32:36;9.80;99.90
16200;DHT22;8207;52.494;4.654;2022-12-24T02:35:10;9.80;99.90
16200;DHT22;8207;52.494;4.654;2022-12-24T02:37:41;9.70;99.90
16200;DHT22;8207;52.494;4.654;2022-12-24T02:40:12;9.70;99.90
16200;DHT22;8207;52.494;4.654;2022-12-24T02:42:42;9.70;99.90
16200;DHT22;8207;52.494;4.654;2022-12-24T02:45:15;9.70;99.90
16200;DHT22;8207;52.494;4.654;2022-12-24T02:47:44;9.70;99.90
16200;DHT22;8207;52.494;4.654;2022-12-24T02:50:13;9.70;99.90
16200;DHT22;8207;52.494;4.654;2022-12-24T02:52:42;9.70;99.90
16200;DHT22;8207;52.494;4.654;2022-12-24T02:55:14;9.70;99.90
16200;DHT22;8207;52.494;4.654;2022-12-24T03:00:40;9.70;99.90
16200;DHT22;8207;52.494;4.654;2022-12-24T03:03:21;9.80;99.90
16200;DHT22;8207;52.494;4.654;2022-12-24T03:05:59;9.80;99.90
16200;DHT22;8207;52.494;4.654;2022-12-24T03:08:34;9.80;99.90
16200;DHT22;8207;52.494;4.654;2022-12-24T03:11:08;9.80;99.90
16200;DHT22;8207;52.494;4.654;2022-12-24T03:13:37;9.80;99.90
16200;DHT22;8207;52.494;4.654;2022-12-24T03:16:07;9.80;99.90
16200;DHT22;8207;52.494;4.654;2022-12-24T03:18:37;9.80;99.90
16200;DHT22;8207;52.494;4.654;2022-12-24T03:21:09;9.80;99.90
16200;DHT22;8207;52.494;4.654;2022-12-24T03:23:37;9.80;99.90
16200;DHT22;8207;52.494;4.654;2022-12-24T03:26:06;9.80;99.90
16200;DHT22;8207;52.494;4.654;2022-12-24T03:28:36;9.80;99.90
16200;DHT22;8207;52.494;4.654;2022-12-24T03:31:08;9.70;99.90
16200;DHT22;8207;52.494;4.654;2022-12-24T03:33:35;9.80;99.90
16200;DHT22;8207;52.494;4.654;2022-12-24T03:36:04;9.70;99.90
16200;DHT22;8207;52.494;4.654;2022-12-24T03:38:31;9.80;99.90
16200;DHT22;8207;52.494;4.654;2022-12-24T03:40:58;9.80;99.90
16200;DHT22;8207;52.494;4.654;2022-12-24T03:43:25;9.80;99.90
16200;DHT22;8207;52.494;4.654;2022-12-24T03:45:52;9.80;99.90
16200;DHT22;8207;52.494;4.654;2022-12-24T03:48:21;9.80;99.90
16200;DHT22;8207;52.494;4.654;2022-12-24T03:50:47;9.80;99.90
16200;DHT22;8207;52.494;4.654;2022-12-24T03:53:14;9.90;99.90
16200;DHT22;8207;52.494;4.654;2022-12-24T03:55:41;9.90;99.90
16200;DHT22;8207;52.494;4.654;2022-12-24T03:58:08;9.90;99.90
16200;DHT22;8207;52.494;4.654;2022-12-24T04:00:35;9.90;99.90
16200;DHT22;8207;52.494;4.654;2022-12-24T04:03:02;9.80;99.90
16200;DHT22;8207;52.494;4.654;2022-12-24T04:05:30;9.80;99.90
16200;DHT22;8207;52.494;4.654;2022-12-24T04:07:57;9.80;99.90
16200;DHT22;8207;52.494;4.654;2022-12-24T04:10:24;9.80;99.90
16200;DHT22;8207;52.494;4.654;2022-12-24T04:12:51;9.80;99.90
16200;DHT22;8207;52.494;4.654;2022-12-24T04:15:18;9.70;99.90
16200;DHT22;8207;52.494;4.654;2022-12-24T04:17:45;9.70;99.90
16200;DHT22;8207;52.494;4.654;2022-12-24T04:20:12;9.80;99.90
16200;DHT22;8207;52.494;4.654;2022-12-24T04:22:40;9.80;99.90
16200;DHT22;8207;52.494;4.654;2022-12-24T04:25:08;9.80;99.90
16200;DHT22;8207;52.494;4.654;2022-12-24T04:27:35;9.80;99.90
16200;DHT22;8207;52.494;4.654;2022-12-24T04:30:03;9.80;99.90
16200;DHT22;8207;52.494;4.654;2022-12-24T04:32:30;9.80;99.90
16200;DHT22;8207;52.494;4.654;2022-12-24T04:34:57;9.80;99.90
16200;DHT22;8207;52.494;4.654;2022-12-24T04:37:24;9.80;99.90
16200;DHT22;8207;52.494;4.654;2022-12-24T04:39:52;9.80;99.90
16200;DHT22;8207;52.494;4.654;2022-12-24T04:42:19;9.80;99.90
16200;DHT22;8207;52.494;4.654;2022-12-24T04:44:46;9.80;99.90
16200;DHT22;8207;52.494;4.654;2022-12-24T04:47:13;9.80;99.90
16200;DHT22;8207;52.494;4.654;2022-12-24T04:49:40;9.90;99.90
16200;DHT22;8207;52.494;4.654;2022-12-24T04:52:06;9.90;99.90
16200;DHT22;8207;52.494;4.654;2022-12-24T04:54:33;9.90;99.90
16200;DHT22;8207;52.494;4.654;2022-12-24T04:57:02;9.90;99.90
16200;DHT22;8207;52.494;4.654;2022-12-24T04:59:29;10.00;99.90
16200;DHT22;8207;52.494;4.654;2022-12-24T05:01:55;10.00;99.90
16200;DHT22;8207;52.494;4.654;2022-12-24T05:04:22;10.10;99.90
16200;DHT22;8207;52.494;4.654;2022-12-24T05:06:49;10.10;99.90
16200;DHT22;8207;52.494;4.654;2022-12-24T05:09:16;10.10;99.90
16200;DHT22;8207;52.494;4.654;2022-12-24T05:11:43;10.10;99.90
16200;DHT22;8207;52.494;4.654;2022-12-24T05:14:12;10.20;99.90
16200;DHT22;8207;52.494;4.654;2022-12-24T05:16:38;10.20;99.90
16200;DHT22;8207;52.494;4.654;2022-12-24T05:19:05;10.20;99.90
16200;DHT22;8207;52.494;4.654;2022-12-24T05:21:32;10.20;99.90
16200;DHT22;8207;52.494;4.654;2022-12-24T05:23:59;10.20;99.90
16200;DHT22;8207;52.494;4.654;2022-12-24T05:26:47;10.20;99.90
16200;DHT22;8207;52.494;4.654;2022-12-24T05:29:16;10.20;99.90
16200;DHT22;8207;52.494;4.654;2022-12-24T05:31:44;10.20;99.90
16200;DHT22;8207;52.494;4.654;2022-12-24T05:34:12;10.20;99.90
16200;DHT22;8207;52.494;4.654;2022-12-24T05:36:42;10.20;99.90
16200;DHT22;8207;52.494;4.654;2022-12-24T05:39:12;10.20;99.90
16200;DHT22;8207;52.494;4.654;2022-12-24T05:41:40;10.10;99.90
16200;DHT22;8207;52.494;4.654;2022-12-24T05:44:06;10.10;99.90
16200;DHT22;8207;52.494;4.654;2022-12-24T05:46:35;10.10;99.90
16200;DHT22;8207;52.494;4.654;2022-12-24T05:49:02;10.10;99.90
16200;DHT22;8207;52.494;4.654;2022-12-24T05:51:29;10.10;99.90
16200;DHT22;8207;52.494;4.654;2022-12-24T05:53:56;10.10;99.90
16200;DHT22;8207;52.494;4.654;2022-12-24T05:56:24;10.10;99.90
16200;DHT22;8207;52.494;4.654;2022-12-24T05:58:52;10.10;99.90
16200;DHT22;8207;52.494;4.654;2022-12-24T06:01:20;10.10;99.90
16200;DHT22;8207;52.494;4.654;2022-12-24T06:03:49;10.10;99.90
16200;DHT22;8207;52.494;4.654;2022-12-24T06:06:18;10.20;99.90
16200;DHT22;8207;52.494;4.654;2022-12-24T06:08:46;10.10;99.90
16200;DHT22;8207;52.494;4.654;2022-12-24T06:11:14;10.10;99.90
16200;DHT22;8207;52.494;4.654;2022-12-24T06:13:42;10.10;99.90
16200;DHT22;8207;52.494;4.654;2022-12-24T06:16:12;10.10;99.90
16200;DHT22;8207;52.494;4.654;2022-12-24T06:18:39;10.10;99.90
16200;DHT22;8207;52.494;4.654;2022-12-24T06:21:07;10.10;99.90
16200;DHT22;8207;52.494;4.654;2022-12-24T06:23:36;10.10;99.90
16200;DHT22;8207;52.494;4.654;2022-12-24T06:26:05;10.10;99.90
16200;DHT22;8207;52.494;4.654;2022-12-24T06:28:34;10.10;99.90
16200;DHT22;8207;52.494;4.654;2022-12-24T06:31:02;10.10;99.90
16200;DHT22;8207;52.494;4.654;2022-12-24T06:33:30;10.10;99.90
16200;DHT22;8207;52.494;4.654;2022-12-24T06:35:57;10.10;99.90
16200;DHT22;8207;52.494;4.654;2022-12-24T06:38:25;10.20;99.90
16200;DHT22;8207;52.494;4.654;2022-12-24T06:40:52;10.10;99.90
16200;DHT22;8207;52.494;4.654;2022-12-24T06:43:20;10.20;99.90
16200;DHT22;8207;52.494;4.654;2022-12-24T06:45:47;10.10;99.90
16200;DHT22;8207;52.494;4.654;2022-12-24T06:48:14;10.10;99.90
16200;DHT22;8207;52.494;4.654;2022-12-24T06:50:42;10.10;99.90
16200;DHT22;8207;52.494;4.654;2022-12-24T06:53:09;10.10;99.90
16200;DHT22;8207;52.494;4.654;2022-12-24T06:55:38;10.10;99.90
16200;DHT22;8207;52.494;4.654;2022-12-24T06:58:05;10.10;99.90
16200;DHT22;8207;52.494;4.654;2022-12-24T07:00:32;10.10;99.90
16200;DHT22;8207;52.494;4.654;2022-12-24T07:02:59;10.10;99.90
16200;DHT22;8207;52.494;4.654;2022-12-24T07:05:26;10.10;99.90
16200;DHT22;8207;52.494;4.654;2022-12-24T07:07:54;10.10;99.90
16200;DHT22;8207;52.494;4.654;2022-12-24T07:10:21;10.10;99.90
16200;DHT22;8207;52.494;4.654;2022-12-24T07:12:50;10.00;99.90
16200;DHT22;8207;52.494;4.654;2022-12-24T07:15:16;10.00;99.90
16200;DHT22;8207;52.494;4.654;2022-12-24T07:17:43;10.00;99.90
16200;DHT22;8207;52.494;4.654;2022-12-24T07:20:12;10.10;99.90
16200;DHT22;8207;52.494;4.654;2022-12-24T07:22:39;10.10;99.90
16200;DHT22;8207;52.494;4.654;2022-12-24T07:25:08;10.10;99.90
16200;DHT22;8207;52.494;4.654;2022-12-24T07:27:35;10.10;99.90
16200;DHT22;8207;52.494;4.654;2022-12-24T07:30:05;10.10;99.90
16200;DHT22;8207;52.494;4.654;2022-12-24T07:32:32;10.10;99.90
16200;DHT22;8207;52.494;4.654;2022-12-24T07:34:59;10.20;99.90
16200;DHT22;8207;52.494;4.654;2022-12-24T07:37:26;10.20;99.90
16200;DHT22;8207;52.494;4.654;2022-12-24T07:39:53;10.30;99.90
16200;DHT22;8207;52.494;4.654;2022-12-24T07:42:20;10.30;99.90
16200;DHT22;8207;52.494;4.654;2022-12-24T07:44:46;10.20;99.90
16200;DHT22;8207;52.494;4.654;2022-12-24T07:47:15;10.20;99.90
16200;DHT22;8207;52.494;4.654;2022-12-24T07:49:42;10.20;99.90
16200;DHT22;8207;52.494;4.654;2022-12-24T07:52:09;10.20;99.90
16200;DHT22;8207;52.494;4.654;2022-12-24T07:54:36;10.20;99.90
16200;DHT22;8207;52.494;4.654;2022-12-24T07:57:03;10.20;99.90
16200;DHT22;8207;52.494;4.654;2022-12-24T07:59:29;10.20;99.90
16200;DHT22;8207;52.494;4.654;2022-12-24T08:01:58;10.20;99.90
16200;DHT22;8207;52.494;4.654;2022-12-24T08:04:30;10.20;99.90
16200;DHT22;8207;52.494;4.654;2022-12-24T08:06:57;10.20;99.90
16200;DHT22;8207;52.494;4.654;2022-12-24T08:09:24;10.20;99.90
16200;DHT22;8207;52.494;4.654;2022-12-24T08:11:50;10.20;99.90
16200;DHT22;8207;52.494;4.654;2022-12-24T08:14:17;10.20;99.90
16200;DHT22;8207;52.494;4.654;2022-12-24T08:16:44;10.20;99.90
16200;DHT22;8207;52.494;4.654;2022-12-24T08:19:14;10.30;99.90
16200;DHT22;8207;52.494;4.654;2022-12-24T08:21:43;10.30;99.90
16200;DHT22;8207;52.494;4.654;2022-12-24T08:24:10;10.30;99.90
16200;DHT22;8207;52.494;4.654;2022-12-24T08:26:37;10.30;99.90
16200;DHT22;8207;52.494;4.654;2022-12-24T08:29:05;10.30;99.90
16200;DHT22;8207;52.494;4.654;2022-12-24T08:31:32;10.30;99.90
16200;DHT22;8207;52.494;4.654;2022-12-24T08:34:01;10.30;99.90
16200;DHT22;8207;52.494;4.654;2022-12-24T08:36:27;10.30;99.90
16200;DHT22;8207;52.494;4.654;2022-12-24T08:38:56;10.30;99.90
16200;DHT22;8207;52.494;4.654;2022-12-24T08:41:23;10.20;99.90
16200;DHT22;8207;52.494;4.654;2022-12-24T08:43:50;10.20;99.90
16200;DHT22;8207;52.494;4.654;2022-12-24T08:46:17;10.30;99.90
16200;DHT22;8207;52.494;4.654;2022-12-24T08:48:44;10.30;99.90
16200;DHT22;8207;52.494;4.654;2022-12-24T08:51:11;10.30;99.90
16200;DHT22;8207;52.494;4.654;2022-12-24T08:53:38;10.30;99.90
16200;DHT22;8207;52.494;4.654;2022-12-24T08:56:08;10.30;99.90
16200;DHT22;8207;52.494;4.654;2022-12-24T08:58:36;10.30;99.90
16200;DHT22;8207;52.494;4.654;2022-12-24T09:01:09;10.30;99.90
16200;DHT22;8207;52.494;4.654;2022-12-24T09:03:36;10.30;99.90
16200;DHT22;8207;52.494;4.654;2022-12-24T09:06:04;10.30;99.90
16200;DHT22;8207;52.494;4.654;2022-12-24T09:08:31;10.30;99.90
16200;DHT22;8207;52.494;4.654;2022-12-24T09:11:02;10.30;99.90
16200;DHT22;8207;52.494;4.654;2022-12-24T09:13:31;10.40;99.90
16200;DHT22;8207;52.494;4.654;2022-12-24T09:15:58;10.40;99.90
16200;DHT22;8207;52.494;4.654;2022-12-24T09:18:24;10.40;99.90
16200;DHT22;8207;52.494;4.654;2022-12-24T09:20:57;10.40;99.90
16200;DHT22;8207;52.494;4.654;2022-12-24T09:23:23;10.40;99.90
16200;DHT22;8207;52.494;4.654;2022-12-24T09:25:50;10.40;99.90
16200;DHT22;8207;52.494;4.654;2022-12-24T09:28:17;10.40;99.90
16200;DHT22;8207;52.494;4.654;2022-12-24T09:30:54;10.40;99.90
16200;DHT22;8207;52.494;4.654;2022-12-24T09:33:21;10.50;99.90
16200;DHT22;8207;52.494;4.654;2022-12-24T09:35:49;10.40;99.90
16200;DHT22;8207;52.494;4.654;2022-12-24T09:38:16;10.40;99.90
16200;DHT22;8207;52.494;4.654;2022-12-24T09:40:43;10.40;99.90
16200;DHT22;8207;52.494;4.654;2022-12-24T09:43:14;10.40;99.90
16200;DHT22;8207;52.494;4.654;2022-12-24T09:45:47;10.40;99.90
16200;DHT22;8207;52.494;4.654;2022-12-24T09:48:17;10.40;99.90
16200;DHT22;8207;52.494;4.654;2022-12-24T09:50:50;10.40;99.90
16200;DHT22;8207;52.494;4.654;2022-12-24T09:53:22;10.40;99.90
16200;DHT22;8207;52.494;4.654;2022-12-24T09:55:54;10.40;99.90
16200;DHT22;8207;52.494;4.654;2022-12-24T09:58:24;10.40;99.90
16200;DHT22;8207;52.494;4.654;2022-12-24T10:00:55;10.40;99.90
16200;DHT22;8207;52.494;4.654;2022-12-24T10:03:23;10.40;99.90
16200;DHT22;8207;52.494;4.654;2022-12-24T10:05:57;10.30;99.90
16200;DHT22;8207;52.494;4.654;2022-12-24T10:08:29;10.30;99.90
16200;DHT22;8207;52.494;4.654;2022-12-24T10:11:01;10.40;99.90
16200;DHT22;8207;52.494;4.654;2022-12-24T10:13:48;10.30;99.90
16200;DHT22;8207;52.494;4.654;2022-12-24T10:16:22;10.30;99.90
16200;DHT22;8207;52.494;4.654;2022-12-24T10:18:58;10.30;99.90
16200;DHT22;8207;52.494;4.654;2022-12-24T10:21:36;10.30;99.90
16200;DHT22;8207;52.494;4.654;2022-12-24T10:24:11;10.30;99.90
16200;DHT22;8207;52.494;4.654;2022-12-24T10:26:44;10.30;99.90
16200;DHT22;8207;52.494;4.654;2022-12-24T10:29:14;10.40;99.90
16200;DHT22;8207;52.494;4.654;2022-12-24T10:31:52;10.40;99.90
16200;DHT22;8207;52.494;4.654;2022-12-24T10:34:22;10.40;99.90
16200;DHT22;8207;52.494;4.654;2022-12-24T10:36:50;10.40;99.90
16200;DHT22;8207;52.494;4.654;2022-12-24T10:39:19;10.50;99.90
16200;DHT22;8207;52.494;4.654;2022-12-24T10:41:48;10.50;99.90
16200;DHT22;8207;52.494;4.654;2022-12-24T10:44:18;10.60;99.90
16200;DHT22;8207;52.494;4.654;2022-12-24T10:46:48;10.50;99.90
16200;DHT22;8207;52.494;4.654;2022-12-24T10:49:16;10.60;99.90
16200;DHT22;8207;52.494;4.654;2022-12-24T10:51:48;10.60;99.90
16200;DHT22;8207;52.494;4.654;2022-12-24T10:54:18;10.60;99.90
16200;DHT22;8207;52.494;4.654;2022-12-24T10:56:47;10.60;99.90
16200;DHT22;8207;52.494;4.654;2022-12-24T10:59:26;10.70;99.90
16200;DHT22;8207;52.494;4.654;2022-12-24T11:01:56;10.70;99.90
16200;DHT22;8207;52.494;4.654;2022-12-24T11:04:25;10.70;99.90
16200;DHT22;8207;52.494;4.654;2022-12-24T11:06:57;10.70;99.90
16200;DHT22;8207;52.494;4.654;2022-12-24T11:09:26;10.70;99.90
16200;DHT22;8207;52.494;4.654;2022-12-24T11:11:55;10.70;99.90
16200;DHT22;8207;52.494;4.654;2022-12-24T11:14:23;10.80;99.90
16200;DHT22;8207;52.494;4.654;2022-12-24T11:16:52;10.80;99.90
16200;DHT22;8207;52.494;4.654;2022-12-24T11:19:29;10.90;99.90
16200;DHT22;8207;52.494;4.654;2022-12-24T11:22:02;10.90;99.90
16200;DHT22;8207;52.494;4.654;2022-12-24T11:24:31;11.00;99.90
16200;DHT22;8207;52.494;4.654;2022-12-24T11:27:28;11.00;99.90
16200;DHT22;8207;52.494;4.654;2022-12-24T11:30:19;11.00;99.90
16200;DHT22;8207;52.494;4.654;2022-12-24T11:32:47;11.00;99.90
16200;DHT22;8207;52.494;4.654;2022-12-24T11:35:18;11.10;99.90
16200;DHT22;8207;52.494;4.654;2022-12-24T11:37:46;11.10;99.90
16200;DHT22;8207;52.494;4.654;2022-12-24T11:40:19;11.10;99.90
16200;DHT22;8207;52.494;4.654;2022-12-24T11:42:47;11.10;99.90
16200;DHT22;8207;52.494;4.654;2022-12-24T11:45:21;11.00;99.90
16200;DHT22;8207;52.494;4.654;2022-12-24T11:47:51;11.00;99.90
16200;DHT22;8207;52.494;4.654;2022-12-24T11:50:26;11.00;99.90
16200;DHT22;8207;52.494;4.654;2022-12-24T11:53:02;10.90;99.90
16200;DHT22;8207;52.494;4.654;2022-12-24T11:55:39;10.90;99.90
16200;DHT22;8207;52.494;4.654;2022-12-24T11:58:20;10.90;99.90
16200;DHT22;8207;52.494;4.654;2022-12-24T12:00:50;10.90;99.90
16200;DHT22;8207;52.494;4.654;2022-12-24T12:03:27;10.90;99.90
16200;DHT22;8207;52.494;4.654;2022-12-24T12:05:58;10.80;99.90
16200;DHT22;8207;52.494;4.654;2022-12-24T12:08:27;10.80;99.90
16200;DHT22;8207;52.494;4.654;2022-12-24T12:10:57;10.80;99.90
16200;DHT22;8207;52.494;4.654;2022-12-24T12:13:28;10.70;99.90
16200;DHT22;8207;52.494;4.654;2022-12-24T12:16:05;10.60;99.90
16200;DHT22;8207;52.494;4.654;2022-12-24T12:18:36;10.60;99.90
16200;DHT22;8207;52.494;4.654;2022-12-24T12:21:08;10.50;99.90
16200;DHT22;8207;52.494;4.654;2022-12-24T12:23:41;10.50;99.90
16200;DHT22;8207;52.494;4.654;2022-12-24T12:26:11;10.40;99.90
16200;DHT22;8207;52.494;4.654;2022-12-24T12:28:46;10.40;99.90
16200;DHT22;8207;52.494;4.654;2022-12-24T12:31:16;10.40;99.90
16200;DHT22;8207;52.494;4.654;2022-12-24T12:33:48;10.50;99.90
16200;DHT22;8207;52.494;4.654;2022-12-24T12:36:19;10.50;99.90
16200;DHT22;8207;52.494;4.654;2022-12-24T12:38:46;10.50;99.90
16200;DHT22;8207;52.494;4.654;2022-12-24T12:41:25;10.50;99.90
16200;DHT22;8207;52.494;4.654;2022-12-24T12:50:08;10.50;99.90
16200;DHT22;8207;52.494;4.654;2022-12-24T12:52:52;10.40;99.90
16200;DHT22;8207;52.494;4.654;2022-12-24T12:55:32;10.40;99.90
16200;DHT22;8207;52.494;4.654;2022-12-24T12:58:04;10.40;99.90
16200;DHT22;8207;52.494;4.654;2022-12-24T13:00:35;10.30;99.90
16200;DHT22;8207;52.494;4.654;2022-12-24T13:06:22;10.30;99.90
16200;DHT22;8207;52.494;4.654;2022-12-24T13:09:23;10.30;99.90
16200;DHT22;8207;52.494;4.654;2022-12-24T13:12:08;10.30;99.90
16200;DHT22;8207;52.494;4.654;2022-12-24T13:14:57;10.30;99.90
16200;DHT22;8207;52.494;4.654;2022-12-24T13:17:58;10.20;99.90
16200;DHT22;8207;52.494;4.654;2022-12-24T13:20:28;10.20;99.90
16200;DHT22;8207;52.494;4.654;2022-12-24T13:22:59;10.20;99.90
16200;DHT22;8207;52.494;4.654;2022-12-24T13:25:34;10.20;99.90
16200;DHT22;8207;52.494;4.654;2022-12-24T13:28:33;10.10;99.90
16200;DHT22;8207;52.494;4.654;2022-12-24T13:31:23;10.20;99.90
16200;DHT22;8207;52.494;4.654;2022-12-24T13:33:53;10.20;99.90
16200;DHT22;8207;52.494;4.654;2022-12-24T13:36:21;10.20;99.90
16200;DHT22;8207;52.494;4.654;2022-12-24T13:38:49;10.20;99.90
16200;DHT22;8207;52.494;4.654;2022-12-24T13:44:28;10.30;99.90
16200;DHT22;8207;52.494;4.654;2022-12-24T13:49:47;10.30;99.90
16200;DHT22;8207;52.494;4.654;2022-12-24T13:52:19;10.30;99.90
16200;DHT22;8207;52.494;4.654;2022-12-24T13:54:58;10.30;99.90
16200;DHT22;8207;52.494;4.654;2022-12-24T13:57:46;10.30;99.90
16200;DHT22;8207;52.494;4.654;2022-12-24T14:00:37;10.30;99.90
16200;DHT22;8207;52.494;4.654;2022-12-24T14:03:17;10.20;99.90
16200;DHT22;8207;52.494;4.654;2022-12-24T14:05:49;10.30;99.90
16200;DHT22;8207;52.494;4.654;2022-12-24T14:08:27;10.20;99.90
16200;DHT22;8207;52.494;4.654;2022-12-24T14:10:59;10.30;99.90
16200;DHT22;8207;52.494;4.654;2022-12-24T14:13:51;10.30;99.90
16200;DHT22;8207;52.494;4.654;2022-12-24T14:16:20;10.20;99.90
16200;DHT22;8207;52.494;4.654;2022-12-24T14:18:56;10.20;99.90
16200;DHT22;8207;52.494;4.654;2022-12-24T14:21:27;10.20;99.90
16200;DHT22;8207;52.494;4.654;2022-12-24T14:23:57;10.10;99.90
16200;DHT22;8207;52.494;4.654;2022-12-24T14:26:29;10.10;99.90
16200;DHT22;8207;52.494;4.654;2022-12-24T14:29:01;10.10;99.90
16200;DHT22;8207;52.494;4.654;2022-12-24T14:31:30;10.10;99.90
16200;DHT22;8207;52.494;4.654;2022-12-24T14:34:08;10.10;99.90
16200;DHT22;8207;52.494;4.654;2022-12-24T14:36:37;10.00;99.90
16200;DHT22;8207;52.494;4.654;2022-12-24T14:39:05;10.10;99.90
16200;DHT22;8207;52.494;4.654;2022-12-24T14:41:41;10.00;99.90
16200;DHT22;8207;52.494;4.654;2022-12-24T14:44:18;10.00;99.90
16200;DHT22;8207;52.494;4.654;2022-12-24T14:46:52;10.00;99.90
16200;DHT22;8207;52.494;4.654;2022-12-24T14:49:28;9.90;99.90
16200;DHT22;8207;52.494;4.654;2022-12-24T14:52:04;9.90;99.90
16200;DHT22;8207;52.494;4.654;2022-12-24T14:54:35;9.90;99.90
16200;DHT22;8207;52.494;4.654;2022-12-24T14:57:17;9.80;99.90
16200;DHT22;8207;52.494;4.654;2022-12-24T14:59:47;9.80;99.90
16200;DHT22;8207;52.494;4.654;2022-12-24T15:02:44;9.80;99.90
16200;DHT22;8207;52.494;4.654;2022-12-24T15:05:15;9.80;99.90
16200;DHT22;8207;52.494;4.654;2022-12-24T15:07:45;9.70;99.90
16200;DHT22;8207;52.494;4.654;2022-12-24T15:10:26;9.60;99.90
16200;DHT22;8207;52.494;4.654;2022-12-24T15:12:55;9.60;99.90
16200;DHT22;8207;52.494;4.654;2022-12-24T15:15:23;9.60;99.90
16200;DHT22;8207;52.494;4.654;2022-12-24T15:17:52;9.50;99.90
16200;DHT22;8207;52.494;4.654;2022-12-24T15:20:21;9.50;99.90
16200;DHT22;8207;52.494;4.654;2022-12-24T15:22:51;9.40;99.90
16200;DHT22;8207;52.494;4.654;2022-12-24T15:25:22;9.40;99.90
16200;DHT22;8207;52.494;4.654;2022-12-24T15:27:49;9.30;99.90
16200;DHT22;8207;52.494;4.654;2022-12-24T15:30:20;9.30;99.90
16200;DHT22;8207;52.494;4.654;2022-12-24T15:32:49;9.30;99.90
16200;DHT22;8207;52.494;4.654;2022-12-24T15:35:32;9.20;99.90
16200;DHT22;8207;52.494;4.654;2022-12-24T15:38:01;9.10;99.90
16200;DHT22;8207;52.494;4.654;2022-12-24T15:40:31;9.10;99.90
16200;DHT22;8207;52.494;4.654;2022-12-24T15:42:59;9.00;99.90
16200;DHT22;8207;52.494;4.654;2022-12-24T15:45:28;9.00;99.90
16200;DHT22;8207;52.494;4.654;2022-12-24T15:47:58;9.00;99.90
16200;DHT22;8207;52.494;4.654;2022-12-24T15:50:30;8.90;99.90
16200;DHT22;8207;52.494;4.654;2022-12-24T15:53:00;8.90;99.90
16200;DHT22;8207;52.494;4.654;2022-12-24T15:55:30;8.90;99.90
16200;DHT22;8207;52.494;4.654;2022-12-24T15:57:58;8.90;99.90
16200;DHT22;8207;52.494;4.654;2022-12-24T16:00:27;8.90;99.90
16200;DHT22;8207;52.494;4.654;2022-12-24T16:03:09;8.90;99.90
16200;DHT22;8207;52.494;4.654;2022-12-24T16:05:38;8.90;99.90
16200;DHT22;8207;52.494;4.654;2022-12-24T16:08:20;8.90;99.90
16200;DHT22;8207;52.494;4.654;2022-12-24T16:10:50;8.80;99.90
16200;DHT22;8207;52.494;4.654;2022-12-24T16:13:20;8.80;99.90
16200;DHT22;8207;52.494;4.654;2022-12-24T16:15:51;8.80;99.90
16200;DHT22;8207;52.494;4.654;2022-12-24T16:18:23;8.70;99.90
16200;DHT22;8207;52.494;4.654;2022-12-24T16:20:53;8.80;99.90
16200;DHT22;8207;52.494;4.654;2022-12-24T16:23:22;8.80;99.90
16200;DHT22;8207;52.494;4.654;2022-12-24T16:25:50;8.70;99.90
16200;DHT22;8207;52.494;4.654;2022-12-24T16:28:18;8.70;99.90
16200;DHT22;8207;52.494;4.654;2022-12-24T16:30:46;8.60;99.90
16200;DHT22;8207;52.494;4.654;2022-12-24T16:33:15;8.60;99.90
16200;DHT22;8207;52.494;4.654;2022-12-24T16:35:44;8.60;99.90